createdAt,value
2022-10-20T00:01:44.514Z,99023.59
2022-10-20T00:04:11.017Z,99009.47
2022-10-20T00:06:37.501Z,99014.25
2022-10-20T00:09:04.180Z,99009.94
2022-10-20T00:11:31.034Z,99012.06
2022-10-20T00:13:57.703Z,99003.28
2022-10-20T00:16:24.755Z,99006.19
2022-10-20T00:18:51.235Z,99002.97
2022-10-20T00:21:19.471Z,99000.03
2022-10-20T00:23:45.946Z,98993.09
2022-10-20T00:26:14.882Z,98996.81
2022-10-20T00:28:41.456Z,98998.69
2022-10-20T00:31:07.961Z,98994.41
2022-10-20T00:33:34.535Z,98990.09
2022-10-20T00:36:01.815Z,98980.50
2022-10-20T00:38:28.343Z,98978.34
2022-10-20T00:40:54.865Z,98979.63
2022-10-20T00:43:21.366Z,98972.72
2022-10-20T00:45:53.147Z,98967.38
2022-10-20T00:48:21.138Z,98966.56
2022-10-20T00:50:50.273Z,98951.56
2022-10-20T00:53:21.365Z,98955.34
2022-10-20T00:55:48.878Z,98959.88
2022-10-20T00:58:15.339Z,98955.84
2022-10-20T01:00:42.137Z,98963.28
2022-10-20T01:03:12.937Z,98953.66
2022-10-20T01:05:39.487Z,98947.78
2022-10-20T01:08:06.091Z,98946.97
2022-10-20T01:10:49.907Z,98943.75
2022-10-20T01:13:23.512Z,98939.47
2022-10-20T01:16:11.996Z,98931.72
2022-10-20T01:19:18.758Z,98930.38
2022-10-20T01:22:06.591Z,98920.75
2022-10-20T01:24:38.873Z,98927.38
2022-10-20T01:27:42.267Z,98925.22
2022-10-20T01:30:11.184Z,98907.56
2022-10-20T01:32:54.648Z,98912.91
2022-10-20T01:35:48.235Z,98911.03
2022-10-20T01:38:28.154Z,98912.09
2022-10-20T01:40:59.030Z,98908.31
2022-10-20T01:43:25.574Z,98905.44
2022-10-20T01:45:52.218Z,98901.97
2022-10-20T01:48:21.751Z,98896.84
2022-10-20T01:50:48.548Z,98892.59
2022-10-20T01:53:15.095Z,98883.53
2022-10-20T01:55:41.610Z,98882.72
2022-10-20T01:58:35.981Z,98876.59
2022-10-20T02:01:21.194Z,98872.06
2022-10-20T02:03:55.485Z,98872.34
2022-10-20T02:06:56.058Z,98875.00
2022-10-20T02:10:01.282Z,98867.22
2022-10-20T02:12:28.804Z,98862.16
2022-10-20T02:14:55.259Z,98852.31
2022-10-20T02:17:21.850Z,98852.56
2022-10-20T02:19:49.704Z,98849.09
2022-10-20T02:22:16.156Z,98838.13
2022-10-20T02:24:43.232Z,98826.66
2022-10-20T02:27:22.211Z,98836.53
2022-10-20T02:29:57.356Z,98831.69
2022-10-20T02:32:24.252Z,98812.50
2022-10-20T02:34:50.723Z,98818.03
2022-10-20T02:39:48.629Z,98815.66
2022-10-20T02:42:17.212Z,98815.91
2022-10-20T02:44:43.840Z,98813.47
2022-10-20T02:47:10.359Z,98814.78
2022-10-20T02:49:36.808Z,98812.91
2022-10-20T02:52:03.274Z,98810.50
2022-10-20T02:54:29.726Z,98799.28
2022-10-20T02:56:56.231Z,98800.72
2022-10-20T02:59:23.213Z,98813.25
2022-10-20T03:01:51.203Z,98806.06
2022-10-20T03:04:17.780Z,98810.31
2022-10-20T03:06:44.492Z,98811.91
2022-10-20T03:09:11.038Z,98814.34
2022-10-20T03:11:37.491Z,98806.38
2022-10-20T03:14:04.045Z,98809.03
2022-10-20T03:16:30.563Z,98805.03
2022-10-20T03:19:00.042Z,98798.59
2022-10-20T03:21:29.942Z,98799.66
2022-10-20T03:23:56.428Z,98794.81
2022-10-20T03:26:22.879Z,98804.44
2022-10-20T03:28:49.393Z,98800.41
2022-10-20T03:31:15.860Z,98796.13
2022-10-20T03:33:42.337Z,98798.00
2022-10-20T03:36:08.853Z,98796.13
2022-10-20T03:38:35.334Z,98787.84
2022-10-20T03:43:33.215Z,98778.25
2022-10-20T03:46:07.114Z,98769.44
2022-10-20T03:48:33.730Z,98769.69
2022-10-20T03:51:01.079Z,98770.19
2022-10-20T03:53:28.068Z,98754.22
2022-10-20T03:55:54.544Z,98752.63
2022-10-20T03:58:21.155Z,98749.94
2022-10-20T04:00:47.871Z,98742.72
2022-10-20T04:03:14.357Z,98726.41
2022-10-20T04:05:40.890Z,98732.06
2022-10-20T04:08:07.358Z,98728.81
2022-10-20T04:10:33.830Z,98736.28
2022-10-20T04:13:01.031Z,98730.69
2022-10-20T04:15:27.509Z,98739.72
2022-10-20T04:17:53.951Z,98738.13
2022-10-20T04:20:20.483Z,98722.16
2022-10-20T04:22:46.987Z,98719.72
2022-10-20T04:25:13.469Z,98719.72
2022-10-20T04:27:40.667Z,98711.75
2022-10-20T04:30:07.959Z,98714.66
2022-10-20T04:32:34.403Z,98719.19
2022-10-20T04:35:00.851Z,98715.72
2022-10-20T04:37:27.720Z,98712.25
2022-10-20T04:39:54.484Z,98704.50
2022-10-20T04:42:20.950Z,98694.91
2022-10-20T04:44:47.456Z,98694.38
2022-10-20T04:47:13.979Z,98691.13
2022-10-20T04:49:40.639Z,98694.59
2022-10-20T04:52:07.167Z,98699.91
2022-10-20T04:54:33.645Z,98686.06
2022-10-20T04:57:00.105Z,98683.09
2022-10-20T04:59:26.722Z,98678.56
2022-10-20T05:01:53.253Z,98682.03
2022-10-20T05:04:21.859Z,98672.22
2022-10-20T05:06:48.985Z,98671.38
2022-10-20T05:09:15.681Z,98666.06
2022-10-20T05:11:42.325Z,98661.00
2022-10-20T05:14:08.862Z,98653.81
2022-10-20T05:16:35.347Z,98654.88
2022-10-20T05:19:01.821Z,98643.44
2022-10-20T05:21:29.504Z,98642.63
2022-10-20T05:23:57.439Z,98649.00
2022-10-20T05:26:24.033Z,98628.75
2022-10-20T05:28:50.765Z,98620.75
2022-10-20T05:31:18.324Z,98619.16
2022-10-20T05:33:46.312Z,98616.25
2022-10-20T05:36:18.029Z,98609.09
2022-10-20T05:38:47.492Z,98621.56
2022-10-20T05:41:18.085Z,98612.78
2022-10-20T05:43:57.197Z,98613.59
2022-10-20T05:46:24.269Z,98606.66
2022-10-20T05:48:52.820Z,98610.13
2022-10-20T05:51:20.491Z,98601.59
2022-10-20T05:53:47.140Z,98606.13
2022-10-20T05:56:16.033Z,98600.00
2022-10-20T05:58:42.863Z,98604.75
2022-10-20T06:01:23.343Z,98609.25
2022-10-20T06:03:52.933Z,98603.16
2022-10-20T06:06:20.044Z,98605.81
2022-10-20T06:08:46.707Z,98612.72
2022-10-20T06:11:13.692Z,98597.03
2022-10-20T06:13:40.180Z,98605.00
2022-10-20T06:16:12.040Z,98596.44
2022-10-20T06:18:42.886Z,98597.28
2022-10-20T06:21:16.127Z,98598.31
2022-10-20T06:23:42.620Z,98580.97
2022-10-20T06:26:13.748Z,98587.22
2022-10-20T06:28:40.840Z,98584.25
2022-10-20T06:31:17.601Z,98583.94
2022-10-20T06:33:44.145Z,98588.88
2022-10-20T06:36:11.140Z,98578.94
2022-10-20T06:38:38.551Z,98577.59
2022-10-20T06:41:05.696Z,98567.47
2022-10-20T06:43:32.405Z,98568.50
2022-10-20T06:46:03.525Z,98567.72
2022-10-20T06:48:30.016Z,98569.31
2022-10-20T06:51:10.796Z,98569.56
2022-10-20T06:53:37.295Z,98561.59
2022-10-20T06:56:07.960Z,98557.06
2022-10-20T06:58:35.496Z,98556.53
2022-10-20T07:01:05.649Z,98560.25
2022-10-20T07:03:36.303Z,98564.22
2022-10-20T07:06:03.278Z,98556.69
2022-10-20T07:08:31.055Z,98558.28
2022-10-20T07:11:01.869Z,98551.59
2022-10-20T07:13:28.426Z,98560.09
2022-10-20T07:15:55.717Z,98557.19
2022-10-20T07:18:22.331Z,98557.41
2022-10-20T07:20:48.962Z,98558.97
2022-10-20T07:23:16.938Z,98553.06
2022-10-20T07:25:43.481Z,98547.34
2022-10-20T07:28:10.009Z,98555.59
2022-10-20T07:30:42.378Z,98553.97
2022-10-20T07:33:09.461Z,98558.50
2022-10-20T07:35:36.105Z,98553.16
2022-10-20T07:38:02.585Z,98547.03
2022-10-20T07:40:30.471Z,98542.50
2022-10-20T07:42:56.970Z,98543.53
2022-10-20T07:45:23.478Z,98544.34
2022-10-20T07:47:49.939Z,98545.34
2022-10-20T07:50:16.482Z,98547.50
2022-10-20T07:52:42.959Z,98550.59
2022-10-20T07:55:31.909Z,98543.44
2022-10-20T07:57:55.943Z,98540.38
2022-10-20T08:00:22.416Z,98536.44
2022-10-20T08:02:48.882Z,98535.16
2022-10-20T08:05:15.439Z,98531.94
2022-10-20T08:07:41.900Z,98538.91
2022-10-20T08:10:08.699Z,98536.47
2022-10-20T08:12:35.467Z,98531.72
2022-10-20T08:17:45.772Z,98536.56
2022-10-20T08:20:17.224Z,98530.19
2022-10-20T08:22:43.686Z,98514.19
2022-10-20T08:25:13.753Z,98516.06
2022-10-20T08:27:40.197Z,98517.66
2022-10-20T08:30:22.958Z,98517.97
2022-10-20T08:32:53.510Z,98505.69
2022-10-20T08:35:20.682Z,98496.66
2022-10-20T08:37:47.249Z,98502.53
2022-10-20T08:40:25.293Z,98493.50
2022-10-20T08:42:51.835Z,98499.13
2022-10-20T08:45:23.349Z,98505.28
2022-10-20T08:47:51.931Z,98510.13
2022-10-20T08:50:19.046Z,98501.63
2022-10-20T08:52:46.175Z,98494.69
2022-10-20T08:55:28.157Z,98504.81
2022-10-20T08:57:58.724Z,98512.78
2022-10-20T09:00:25.533Z,98502.44
2022-10-20T09:02:52.089Z,98501.50
2022-10-20T09:05:24.352Z,98502.41
2022-10-20T09:07:51.410Z,98496.47
2022-10-20T09:10:36.381Z,98494.63
2022-10-20T09:13:03.456Z,98499.41
2022-10-20T09:15:29.979Z,98498.63
2022-10-20T09:18:00.330Z,98491.69
2022-10-20T09:20:59.032Z,98489.03
2022-10-20T09:23:40.455Z,98486.88
2022-10-20T09:26:32.097Z,98478.09
2022-10-20T09:29:14.029Z,98474.09
2022-10-20T09:31:43.917Z,98461.63
2022-10-20T09:34:32.953Z,98454.97
2022-10-20T09:37:06.543Z,98453.13
2022-10-20T09:39:43.037Z,98460.84
2022-10-20T09:42:19.232Z,98464.34
2022-10-20T09:44:50.535Z,98458.47
2022-10-20T09:47:17.015Z,98459.25
2022-10-20T09:49:44.159Z,98455.28
2022-10-20T09:52:17.193Z,98449.16
2022-10-20T09:54:47.130Z,98441.97
2022-10-20T09:57:18.144Z,98430.25
2022-10-20T09:59:45.680Z,98437.25
2022-10-20T10:02:15.049Z,98431.34
2022-10-20T10:04:43.402Z,98428.91
2022-10-20T10:07:21.918Z,98432.41
2022-10-20T10:10:08.693Z,98424.94
2022-10-20T10:12:35.954Z,98421.50
2022-10-20T10:15:05.576Z,98412.19
2022-10-20T10:17:37.461Z,98409.25
2022-10-20T10:20:07.746Z,98404.50
2022-10-20T10:22:34.500Z,98397.53
2022-10-20T10:25:01.186Z,98396.50
2022-10-20T10:27:28.459Z,98403.97
2022-10-20T10:29:55.793Z,98408.50
2022-10-20T10:32:29.083Z,98406.91
2022-10-20T10:35:15.478Z,98402.09
2022-10-20T10:37:42.662Z,98406.09
2022-10-20T10:40:20.096Z,98397.59
2022-10-20T10:43:07.877Z,98398.41
2022-10-20T10:45:47.832Z,98396.53
2022-10-20T10:48:38.911Z,98384.28
2022-10-20T10:51:09.055Z,98392.81
2022-10-20T10:53:40.210Z,98394.94
2022-10-20T10:56:19.140Z,98388.25
2022-10-20T10:59:10.527Z,98390.13
2022-10-20T11:02:01.980Z,98387.75
2022-10-20T11:04:40.642Z,98384.28
2022-10-20T11:07:27.980Z,98373.34
2022-10-20T11:10:26.795Z,98376.28
2022-10-20T11:12:59.490Z,98365.06
2022-10-20T11:15:52.890Z,98356.81
2022-10-20T11:18:34.034Z,98351.72
2022-10-20T11:21:26.840Z,98356.03
2022-10-20T11:24:17.944Z,98350.69
2022-10-20T11:26:45.963Z,98356.53
2022-10-20T11:29:16.475Z,98362.16
2022-10-20T11:31:54.454Z,98359.72
2022-10-20T11:34:36.697Z,98363.22
2022-10-20T11:37:28.060Z,98367.75
2022-10-20T11:40:20.369Z,98367.50
2022-10-20T11:43:45.693Z,98356.81
2022-10-20T11:46:20.972Z,98349.31
2022-10-20T11:48:54.725Z,98356.25
2022-10-20T11:51:29.966Z,98370.38
2022-10-20T11:54:28.287Z,98367.44
2022-10-20T11:57:12.675Z,98370.63
2022-10-20T11:59:46.090Z,98365.28
2022-10-20T12:02:34.519Z,98361.53
2022-10-20T12:05:31.153Z,98366.09
2022-10-20T12:08:29.868Z,98357.81
2022-10-20T12:11:26.399Z,98342.88
2022-10-20T12:14:06.965Z,98334.59
2022-10-20T12:16:51.674Z,98333.00
2022-10-20T12:19:31.603Z,98319.66
2022-10-20T12:22:29.831Z,98326.59
2022-10-20T12:24:56.133Z,98331.16
2022-10-20T12:27:23.737Z,98330.38
2022-10-20T12:29:52.001Z,98328.22
2022-10-20T12:32:21.392Z,98338.88
2022-10-20T12:34:49.159Z,98337.22
2022-10-20T12:37:25.547Z,98328.69
2022-10-20T12:39:53.037Z,98336.44
2022-10-20T12:42:24.115Z,98336.63
2022-10-20T12:44:50.630Z,98344.91
2022-10-20T12:47:29.776Z,98328.09
2022-10-20T12:49:59.550Z,98322.78
2022-10-20T12:52:34.158Z,98321.69
2022-10-20T12:55:18.701Z,98319.22
2022-10-20T12:57:45.681Z,98305.06
2022-10-20T13:00:24.293Z,98309.13
2022-10-20T13:02:57.314Z,98300.34
2022-10-20T13:05:40.726Z,98301.69
2022-10-20T13:08:19.284Z,98303.28
2022-10-20T13:10:46.011Z,98297.16
2022-10-20T13:13:12.365Z,98295.59
2022-10-20T13:15:43.499Z,98296.38
2022-10-20T13:18:13.058Z,98299.59
2022-10-20T13:21:00.885Z,98281.75
2022-10-20T13:23:46.740Z,98278.81
2022-10-20T13:26:30.316Z,98271.63
2022-10-20T13:28:58.624Z,98266.28
2022-10-20T13:31:42.776Z,98256.72
2022-10-20T13:34:41.521Z,98258.31
2022-10-20T13:37:19.147Z,98272.41
2022-10-20T13:40:28.427Z,98290.81
2022-10-20T13:43:17.847Z,98305.47
2022-10-20T13:46:22.021Z,98287.38
2022-10-20T13:49:13.516Z,98287.88
2022-10-20T13:51:45.043Z,98274.03
2022-10-20T13:54:31.764Z,98280.66
2022-10-20T13:56:58.257Z,98269.22
2022-10-20T13:59:26.494Z,98254.56
2022-10-20T14:02:20.808Z,98251.66
2022-10-20T14:04:47.286Z,98271.34
2022-10-20T14:07:15.638Z,98282.53
2022-10-20T14:09:45.520Z,98297.72
2022-10-20T14:12:24.810Z,98306.50
2022-10-20T14:14:51.365Z,98294.50
2022-10-20T14:17:19.557Z,98299.84
2022-10-20T14:19:46.949Z,98301.97
2022-10-20T14:22:23.581Z,98303.84
2022-10-20T14:24:56.668Z,98306.50
2022-10-20T14:27:30.519Z,98309.44
2022-10-20T14:29:57.102Z,98314.47
2022-10-20T14:32:24.908Z,98300.91
2022-10-20T14:35:02.363Z,98317.41
2022-10-20T14:37:34.806Z,98303.03
2022-10-20T14:40:08.841Z,98293.69
2022-10-20T14:42:35.712Z,98305.94
2022-10-20T14:45:02.514Z,98298.50
2022-10-20T14:47:34.189Z,98301.69
2022-10-20T14:50:00.857Z,98292.38
2022-10-20T14:52:31.581Z,98295.28
2022-10-20T14:54:58.080Z,98281.94
2022-10-20T14:57:24.405Z,98286.47
2022-10-20T15:00:06.098Z,98290.22
2022-10-20T15:02:39.967Z,98285.69
2022-10-20T15:05:24.151Z,98274.25
2022-10-20T15:07:50.820Z,98273.16
2022-10-20T15:10:18.568Z,98271.31
2022-10-20T15:12:48.069Z,98252.94
2022-10-20T15:15:28.918Z,98260.13
2022-10-20T15:18:04.595Z,98262.50
2022-10-20T15:20:34.140Z,98259.06
2022-10-20T15:23:12.839Z,98252.94
2022-10-20T15:25:53.811Z,98252.13
2022-10-20T15:28:25.589Z,98246.81
2022-10-20T15:30:52.099Z,98245.22
2022-10-20T15:33:18.931Z,98234.28
2022-10-20T15:35:47.434Z,98235.09
2022-10-20T15:38:14.812Z,98237.75
2022-10-20T15:40:41.573Z,98233.53
2022-10-20T15:43:13.961Z,98220.72
2022-10-20T15:45:45.543Z,98221.28
2022-10-20T15:48:12.061Z,98219.41
2022-10-20T15:50:39.016Z,98230.59
2022-10-20T15:53:05.712Z,98242.03
2022-10-20T15:55:33.940Z,98242.03
2022-10-20T15:58:00.578Z,98241.50
2022-10-20T16:00:27.686Z,98252.97
2022-10-20T16:02:54.199Z,98246.84
2022-10-20T16:05:25.649Z,98249.50
2022-10-20T16:07:54.844Z,98245.53
2022-10-20T16:10:22.542Z,98234.09
2022-10-20T16:12:49.185Z,98230.59
2022-10-20T16:15:15.743Z,98225.03
2022-10-20T16:17:42.258Z,98229.81
2022-10-20T16:20:09.330Z,98222.34
2022-10-20T16:22:35.998Z,98227.41
2022-10-20T16:25:02.931Z,98222.88
2022-10-20T16:27:29.978Z,98215.69
2022-10-20T16:29:56.491Z,98204.78
2022-10-20T16:32:22.947Z,98211.69
2022-10-20T16:34:49.438Z,98213.03
2022-10-20T16:37:15.919Z,98217.03
2022-10-20T16:39:42.397Z,98213.81
2022-10-20T16:42:09.013Z,98213.81
2022-10-20T16:44:35.494Z,98212.50
2022-10-20T16:47:01.987Z,98221.28
2022-10-20T16:49:28.798Z,98213.88
2022-10-20T16:51:55.267Z,98211.47
2022-10-20T16:54:21.732Z,98206.97
2022-10-20T16:56:49.014Z,98207.22
2022-10-20T16:59:15.467Z,98203.75
2022-10-20T17:01:41.970Z,98199.50
2022-10-20T17:04:08.450Z,98215.22
2022-10-20T17:06:35.016Z,98209.63
2022-10-20T17:09:01.585Z,98208.56
2022-10-20T17:11:29.347Z,98199.22
2022-10-20T17:13:56.239Z,98198.69
2022-10-20T17:16:28.716Z,98185.09
2022-10-20T17:18:56.370Z,98194.97
2022-10-20T17:21:22.846Z,98196.31
2022-10-20T17:23:49.288Z,98187.78
2022-10-20T17:26:17.564Z,98180.03
2022-10-20T17:28:44.032Z,98182.41
2022-10-20T17:31:12.143Z,98174.94
2022-10-20T17:33:38.760Z,98150.66
2022-10-20T17:36:05.707Z,98153.59
2022-10-20T17:38:32.329Z,98156.53
2022-10-20T17:41:05.047Z,98164.81
2022-10-20T17:43:31.564Z,98154.69
2022-10-20T17:46:05.450Z,98150.69
2022-10-20T17:48:31.977Z,98158.94
2022-10-20T17:51:09.832Z,98148.28
2022-10-20T17:53:37.981Z,98161.06
2022-10-20T17:56:06.012Z,98144.25
2022-10-20T17:58:33.817Z,98133.28
2022-10-20T18:01:08.762Z,98144.19
2022-10-20T18:03:35.290Z,98150.84
2022-10-20T18:06:15.976Z,98182.34
2022-10-20T18:08:42.512Z,98186.63
2022-10-20T18:11:13.239Z,98173.53
2022-10-20T18:13:40.400Z,98168.97
2022-10-20T18:16:10.746Z,98163.09
2022-10-20T18:18:37.259Z,98170.88
2022-10-20T18:21:04.070Z,98163.94
2022-10-20T18:23:31.327Z,98162.66
2022-10-20T18:25:58.015Z,98148.13
2022-10-20T18:28:25.058Z,98152.88
2022-10-20T18:30:51.780Z,98148.28
2022-10-20T18:33:18.258Z,98144.56
2022-10-20T18:35:44.926Z,98149.63
2022-10-20T18:38:11.415Z,98153.38
2022-10-20T18:40:37.950Z,98145.88
2022-10-20T18:43:04.420Z,98141.34
2022-10-20T18:45:31.164Z,98150.69
2022-10-20T18:47:57.630Z,98148.03
2022-10-20T18:50:24.088Z,98136.81
2022-10-20T18:52:50.557Z,98136.81
2022-10-20T18:55:17.065Z,98147.25
2022-10-20T18:57:43.889Z,98150.72
2022-10-20T19:00:11.068Z,98149.13
2022-10-20T19:02:37.604Z,98146.44
2022-10-20T19:05:04.568Z,98141.09
2022-10-20T19:07:34.825Z,98140.06
2022-10-20T19:10:01.380Z,98134.16
2022-10-20T19:12:27.880Z,98136.03
2022-10-20T19:14:55.409Z,98135.50
2022-10-20T19:17:21.947Z,98140.28
2022-10-20T19:19:48.410Z,98140.81
2022-10-20T19:22:14.923Z,98134.69
2022-10-20T19:24:41.460Z,98127.47
2022-10-20T19:27:25.746Z,98132.00
2022-10-20T19:29:53.335Z,98136.56
2022-10-20T19:32:19.852Z,98130.41
2022-10-20T19:34:46.361Z,98122.41
2022-10-20T19:37:12.827Z,98125.88
2022-10-20T19:39:40.971Z,98125.13
2022-10-20T19:42:07.752Z,98131.22
2022-10-20T19:44:34.358Z,98117.66
2022-10-20T19:47:00.979Z,98109.13
2022-10-20T19:49:27.471Z,98108.63
2022-10-20T19:51:54.065Z,98109.94
2022-10-20T19:54:20.565Z,98111.28
2022-10-20T19:56:47.101Z,98118.22
2022-10-20T19:59:13.817Z,98115.03
2022-10-20T20:01:40.363Z,98111.53
2022-10-20T20:04:06.834Z,98105.97
2022-10-20T20:06:33.882Z,98106.50
2022-10-20T20:09:01.366Z,98087.53
2022-10-20T20:11:30.587Z,98088.88
2022-10-20T20:14:01.812Z,98081.13
2022-10-20T20:16:28.597Z,98075.78
2022-10-20T20:18:55.332Z,98085.38
2022-10-20T20:21:22.038Z,98078.19
2022-10-20T20:23:58.982Z,98068.63
2022-10-20T20:26:27.168Z,98064.28
2022-10-20T20:28:54.151Z,98065.34
2022-10-20T20:31:20.910Z,98062.13
2022-10-20T20:33:47.415Z,98068.50
2022-10-20T20:36:13.890Z,98060.78
2022-10-20T20:38:41.432Z,98060.53
2022-10-20T20:41:11.287Z,98072.81
2022-10-20T20:43:37.813Z,98086.94
2022-10-20T20:46:09.171Z,98089.38
2022-10-20T20:48:36.020Z,98086.69
2022-10-20T20:51:02.508Z,98071.75
2022-10-20T20:53:29.049Z,98062.19
2022-10-20T20:55:59.077Z,98063.31
2022-10-20T20:58:25.878Z,98071.31
2022-10-20T21:00:52.508Z,98080.59
2022-10-20T21:03:19.189Z,98071.78
2022-10-20T21:05:45.651Z,98067.53
2022-10-20T21:08:12.102Z,98064.59
2022-10-20T21:10:38.599Z,98065.97
2022-10-20T21:13:05.047Z,98056.34
2022-10-20T21:15:31.521Z,98051.81
2022-10-20T21:17:57.989Z,98056.34
2022-10-20T21:20:24.464Z,98061.44
2022-10-20T21:22:50.969Z,98055.31
2022-10-20T21:25:17.499Z,98054.47
2022-10-20T21:27:44.007Z,98051.28
2022-10-20T21:30:10.530Z,98057.19
2022-10-20T21:32:37.249Z,98065.97
2022-10-20T21:35:03.851Z,98073.00
2022-10-20T21:37:30.299Z,98073.00
2022-10-20T21:39:56.764Z,98070.91
2022-10-20T21:42:23.262Z,98065.06
2022-10-20T21:44:50.234Z,98062.97
2022-10-20T21:47:16.732Z,98065.63
2022-10-20T21:49:43.215Z,98064.03
2022-10-20T21:52:09.687Z,98059.22
2022-10-20T21:54:36.161Z,98068.31
2022-10-20T21:57:02.911Z,98077.38
2022-10-20T21:59:30.098Z,98075.50
2022-10-20T22:01:58.124Z,98092.59
2022-10-20T22:04:29.023Z,98084.31
2022-10-20T22:06:55.570Z,98087.78
2022-10-20T22:09:22.232Z,98078.19
2022-10-20T22:11:55.141Z,98088.31
2022-10-20T22:14:21.790Z,98086.72
2022-10-20T22:16:48.452Z,98080.84
2022-10-20T22:19:19.406Z,98077.94
2022-10-20T22:21:47.256Z,98069.13
2022-10-20T22:24:13.875Z,98072.59
2022-10-20T22:26:40.572Z,98075.03
2022-10-20T22:29:09.416Z,98072.38
2022-10-20T22:31:36.833Z,98071.81
2022-10-20T22:34:03.306Z,98069.44
2022-10-20T22:36:29.973Z,98070.75
2022-10-20T22:38:56.459Z,98081.41
2022-10-20T22:41:23.031Z,98074.50
2022-10-20T22:43:49.504Z,98071.56
2022-10-20T22:46:16.268Z,98064.91
2022-10-20T22:48:42.904Z,98061.13
2022-10-20T22:51:09.483Z,98068.59
2022-10-20T22:53:36.785Z,98072.84
2022-10-20T22:56:10.381Z,98079.50
2022-10-20T22:58:36.904Z,98088.56
2022-10-20T23:01:11.139Z,98074.16
2022-10-20T23:03:37.801Z,98066.69
2022-10-20T23:06:14.693Z,98061.88
2022-10-20T23:08:45.327Z,98062.69
2022-10-20T23:11:11.962Z,98053.31
2022-10-20T23:13:38.475Z,98043.44
2022-10-20T23:16:05.110Z,98042.66
2022-10-20T23:18:31.624Z,98037.31
2022-10-20T23:20:58.444Z,98042.66
2022-10-20T23:23:25.028Z,98035.44
2022-10-20T23:25:51.571Z,98021.34
2022-10-20T23:28:20.857Z,98026.94
2022-10-20T23:30:47.400Z,98036.81
2022-10-20T23:33:13.880Z,98039.47
2022-10-20T23:35:40.403Z,98039.47
2022-10-20T23:38:07.649Z,98038.69
2022-10-20T23:40:34.139Z,98042.41
2022-10-20T23:43:00.686Z,98033.88
2022-10-20T23:45:27.138Z,98044.56
2022-10-20T23:47:53.631Z,98029.09
2022-10-20T23:50:23.543Z,98024.56
2022-10-20T23:52:50.030Z,98025.13
2022-10-20T23:55:16.498Z,98020.31
2022-10-20T23:57:42.974Z,98017.94
